GMMX/RAK METAR and TAF weather

Enter ICAO airport designator
Station Type Date Time Source
GMMX METAR 2018/10/21 04:30 UTC NOAA

GMMX 210430Z 15002KT 9999 SCT086 16/13 Q1017 NOSIG


Station Type Date Time Source
GMMX Decoded METAR 2018/10/21 04:30 UTC NOAA

Marrakech, Morocco (GMMX) 31-37N 008-02W 466M
Oct 21, 2018 - 12:30 AM EDT / 2018.10.21 0430 UTC
Wind: from the SSE (150 degrees) at 2 MPH (2 KT):0
Visibility: greater than 7 mile(s):0
Sky conditions: partly cloudy
Temperature: 60 F (16 C)
Dew Point: 55 F (13 C)
Relative Humidity: 82%
Pressure (altimeter): 30.03 in. Hg (1017 hPa)
ob: GMMX 210430Z 15002KT 9999 SCT086 16/13 Q1017 NOSIG
cycle: 4

Station Type Date Time Source
GMMX TAF 2018/10/20 18:28 UTC NOAA

TAF GMMX 201700Z 2018/2124 34015KT 8000 BKN023
BECMG 2021/2023 06006KT
TEMPO 2115/2120 32014KT


Example: see airport list